Time;durP1;ratioP1;P1;durP2;ratioP2;P2;SDS_P1;SDS_P2;PMS_P1;PMS_P2;Temp;Humidity;BMP_temperature;BMP_pressure;BME280_temperature;BME280_humidity;BME280_pressure;Samples;Min_cycle;Max_cycle;Signal;HPM_P1;HPM_P2
2022/11/08 00:02:08;;;;;;;11.82;7.05;;;13.60;75.90;;;;;;5012960;28;20041;-75
2022/11/08 00:04:33;;;;;;;11.77;7.60;;;13.60;76.00;;;;;;5012628;28;20054;-77
2022/11/08 00:15:11;;;;;;;11.50;7.07;;;13.50;76.20;;;;;;5013001;28;19912;-78
2022/11/08 00:17:37;;;;;;;10.63;6.70;;;13.50;76.30;;;;;;4996067;28;20277;-80
2022/11/08 00:20:04;;;;;;;10.55;6.93;;;13.50;76.30;;;;;;5026594;28;20056;-78
2022/11/08 00:22:30;;;;;;;12.30;6.40;;;13.40;76.20;;;;;;5054123;28;20068;-76
2022/11/08 00:24:56;;;;;;;13.10;6.85;;;13.40;76.30;;;;;;5054222;28;20163;-78
2022/11/08 00:27:23;;;;;;;11.15;6.35;;;13.40;76.20;;;;;;5036415;28;20496;-78
2022/11/08 00:29:49;;;;;;;9.70;6.18;;;13.50;76.30;;;;;;5053982;28;20106;-77
2022/11/08 00:32:17;;;;;;;10.30;5.93;;;13.40;76.10;;;;;;5036240;28;20548;-78
2022/11/08 00:34:43;;;;;;;10.98;6.30;;;13.40;76.00;;;;;;5036170;28;20032;-77
2022/11/08 00:37:09;;;;;;;9.77;5.80;;;13.40;76.10;;;;;;5036104;28;20033;-78
2022/11/08 00:39:35;;;;;;;8.82;5.30;;;13.40;75.90;;;;;;5036181;28;20029;-76
2022/11/08 00:42:01;;;;;;;11.45;5.57;;;13.50;76.00;;;;;;5054076;28;20401;-76
2022/11/08 00:44:26;;;;;;;10.60;6.00;;;13.50;75.80;;;;;;5035670;28;20040;-78
2022/11/08 00:46:52;;;;;;;8.90;5.20;;;13.40;75.60;;;;;;5035607;28;20029;-79
2022/11/08 00:49:18;;;;;;;12.65;5.72;;;13.50;75.60;;;;;;5035984;28;20072;-78
2022/11/08 00:51:44;;;;;;;9.65;5.60;;;13.40;75.50;;;;;;5035780;28;20511;-77
2022/11/08 00:54:13;;;;;;;9.10;5.35;;;13.40;75.50;;;;;;5052794;28;20033;-77
2022/11/08 00:56:39;;;;;;;10.52;6.25;;;13.40;75.60;;;;;;5035782;28;20473;-78
2022/11/08 00:59:05;;;;;;;11.32;5.35;;;13.40;75.60;;;;;;5035612;28;20074;-78
2022/11/08 01:01:31;;;;;;;12.82;6.13;;;13.40;75.70;;;;;;5035971;28;20051;-76
2022/11/08 01:03:57;;;;;;;9.63;5.47;;;13.30;75.70;;;;;;5053972;28;20428;-76
2022/11/08 01:06:24;;;;;;;10.90;5.70;;;13.30;75.70;;;;;;5035879;28;20033;-78
2022/11/08 01:08:50;;;;;;;10.77;5.88;;;13.20;75.50;;;;;;5054148;28;20500;-78
2022/11/08 01:11:18;;;;;;;10.38;5.75;;;13.10;75.90;;;;;;5036080;28;20036;-77
2022/11/08 01:13:45;;;;;;;9.88;5.88;;;13.10;75.90;;;;;;5054524;28;20392;-78
2022/11/08 01:16:13;;;;;;;12.63;5.97;;;13.10;76.00;;;;;;5052337;28;20057;-77
2022/11/08 01:18:41;;;;;;;10.07;5.65;;;13.00;75.90;;;;;;5051836;28;20071;-77
2022/11/08 01:21:07;;;;;;;9.60;5.53;;;13.00;76.00;;;;;;5051801;28;20159;-78
2022/11/08 01:23:33;;;;;;;10.77;5.60;;;13.00;76.00;;;;;;5035316;28;20056;-78
2022/11/08 01:26:05;;;;;;;11.10;5.50;;;13.00;75.80;;;;;;5035369;28;20491;-78
2022/11/08 01:28:32;;;;;;;9.77;5.47;;;13.00;75.70;;;;;;5031996;28;20069;-77
2022/11/08 01:31:06;;;;;;;10.15;5.32;;;13.00;75.60;;;;;;5032051;28;20038;-78
2022/11/08 01:33:33;;;;;;;9.73;5.55;;;13.00;75.80;;;;;;5031673;28;20061;-77
2022/11/08 01:35:59;;;;;;;9.07;5.97;;;13.00;75.80;;;;;;5033163;28;20038;-77
2022/11/08 01:38:25;;;;;;;9.20;5.40;;;13.00;75.70;;;;;;5031875;28;20526;-78
2022/11/08 01:40:51;;;;;;;9.07;5.43;;;13.00;75.80;;;;;;5033029;28;20040;-76
2022/11/08 01:43:39;;;;;;;10.38;5.60;;;13.00;75.90;;;;;;5031485;28;20045;-76
2022/11/08 01:46:17;;;;;;;11.70;5.35;;;12.90;75.90;;;;;;5032887;28;20037;-79
2022/11/08 01:48:58;;;;;;;10.85;5.68;;;12.90;75.60;;;;;;5032975;28;20030;-78
2022/11/08 01:51:29;;;;;;;13.18;5.70;;;12.90;76.10;;;;;;5033050;28;20087;-76
2022/11/08 01:53:56;;;;;;;9.20;5.07;;;12.90;75.80;;;;;;5032734;28;20026;-78
2022/11/08 01:56:22;;;;;;;8.85;5.50;;;12.90;75.80;;;;;;5031371;28;20617;-77
2022/11/08 01:58:50;;;;;;;13.15;4.63;;;12.90;75.70;;;;;;5032815;28;20029;-78
2022/11/08 02:01:16;;;;;;;9.90;5.40;;;12.90;75.70;;;;;;5033350;28;20551;-77
2022/11/08 02:03:42;;;;;;;12.45;5.78;;;12.90;75.80;;;;;;5031851;28;20037;-78
2022/11/08 02:06:08;;;;;;;11.25;5.07;;;12.90;75.80;;;;;;5037278;28;20493;-77
2022/11/08 02:08:42;;;;;;;9.45;4.95;;;12.80;75.70;;;;;;5038240;28;20362;-78
2022/11/08 02:11:11;;;;;;;8.20;4.85;;;12.90;75.80;;;;;;5039277;28;20037;-78
2022/11/08 02:13:38;;;;;;;9.20;4.70;;;12.90;75.60;;;;;;5055027;28;20044;-78
2022/11/08 02:16:13;;;;;;;8.95;4.55;;;12.90;75.50;;;;;;5038021;28;20029;-78
2022/11/08 02:18:42;;;;;;;9.57;4.18;;;12.80;75.40;;;;;;5038019;28;20030;-77
2022/11/08 02:21:14;;;;;;;10.15;5.00;;;12.80;75.20;;;;;;5039217;28;20060;-78
2022/11/08 02:23:50;;;;;;;7.78;4.43;;;12.80;75.50;;;;;;5054301;28;20452;-78
2022/11/08 02:26:18;;;;;;;7.72;4.88;;;12.70;75.60;;;;;;5039238;28;20167;-76
2022/11/08 02:28:46;;;;;;;10.55;5.35;;;12.70;75.60;;;;;;5037795;28;20050;-75
2022/11/08 02:31:15;;;;;;;8.75;5.30;;;12.60;75.70;;;;;;5037857;28;20447;-78
2022/11/08 02:33:41;;;;;;;9.93;5.78;;;12.60;75.90;;;;;;5037898;28;20497;-78
2022/11/08 02:36:09;;;;;;;10.68;6.13;;;12.50;76.20;;;;;;5039190;28;20036;-77
2022/11/08 02:38:39;;;;;;;11.25;5.75;;;12.50;76.30;;;;;;5054520;28;20088;-78
2022/11/08 02:41:05;;;;;;;10.38;6.00;;;12.50;76.50;;;;;;5039200;28;20042;-76
2022/11/08 02:43:31;;;;;;;9.32;5.78;;;12.50;76.60;;;;;;5039326;28;20065;-76
2022/11/08 02:45:58;;;;;;;11.45;6.03;;;12.50;76.60;;;;;;5038449;28;20073;-79
2022/11/08 02:48:24;;;;;;;9.73;6.13;;;12.50;76.70;;;;;;5038759;28;20501;-78
2022/11/08 02:50:50;;;;;;;12.32;5.80;;;12.50;76.80;;;;;;5038790;28;20033;-77
2022/11/08 02:53:16;;;;;;;9.18;5.18;;;12.60;76.90;;;;;;5039469;28;20045;-78
2022/11/08 02:55:42;;;;;;;9.13;5.25;;;12.50;76.60;;;;;;5039033;28;20036;-78
2022/11/08 02:58:08;;;;;;;8.68;5.32;;;12.50;76.50;;;;;;5038216;28;20033;-76
2022/11/08 03:00:34;;;;;;;10.15;5.60;;;12.60;76.90;;;;;;5038597;28;20825;-78
2022/11/08 03:03:00;;;;;;;7.95;5.20;;;12.60;76.70;;;;;;5041334;28;20406;-79
2022/11/08 03:05:27;;;;;;;9.68;5.85;;;12.50;76.40;;;;;;5037579;28;20033;-78
2022/11/08 03:07:54;;;;;;;10.98;5.38;;;12.40;76.40;;;;;;5037876;28;20025;-77
2022/11/08 03:10:20;;;;;;;9.52;5.20;;;12.50;77.30;;;;;;5038731;28;20036;-78
2022/11/08 03:12:46;;;;;;;9.57;4.95;;;12.40;76.70;;;;;;5038715;28;20029;-79
2022/11/08 03:15:13;;;;;;;10.27;4.85;;;12.50;76.80;;;;;;5038573;28;20044;-78
2022/11/08 03:17:39;;;;;;;8.63;4.60;;;12.40;76.50;;;;;;5050475;28;20508;-77
2022/11/08 03:20:06;;;;;;;7.53;4.10;;;12.40;76.40;;;;;;5035476;28;20038;-78
2022/11/08 03:22:32;;;;;;;8.13;4.50;;;12.40;76.50;;;;;;5035592;28;20032;-79
2022/11/08 03:24:58;;;;;;;8.63;4.32;;;12.40;76.30;;;;;;5034259;28;20116;-76
2022/11/08 03:27:23;;;;;;;8.68;4.55;;;12.40;76.30;;;;;;5034189;28;20037;-79
2022/11/08 03:29:49;;;;;;;10.18;4.88;;;12.30;76.20;;;;;;5050646;28;20386;-78
2022/11/08 03:32:15;;;;;;;7.85;4.43;;;12.30;76.30;;;;;;5055293;28;20025;-80
2022/11/08 03:34:41;;;;;;;9.80;4.78;;;12.30;76.30;;;;;;5055227;28;20485;-74
2022/11/08 03:37:08;;;;;;;8.85;4.72;;;12.20;76.20;;;;;;5037107;28;20058;-79
2022/11/08 03:39:35;;;;;;;7.88;4.50;;;12.30;76.30;;;;;;5053878;28;20034;-76
2022/11/08 03:42:03;;;;;;;9.25;4.18;;;12.30;76.30;;;;;;5053849;28;20033;-78
2022/11/08 03:44:29;;;;;;;9.57;4.10;;;12.30;76.00;;;;;;5054928;28;20076;-76
2022/11/08 03:46:55;;;;;;;6.10;3.65;;;12.20;75.90;;;;;;5053732;28;20123;-77
2022/11/08 03:49:21;;;;;;;7.38;4.40;;;12.10;76.00;;;;;;5037036;28;20126;-77
2022/11/08 03:51:46;;;;;;;7.45;3.50;;;12.10;75.90;;;;;;5055037;28;20033;-77
2022/11/08 03:54:12;;;;;;;6.00;3.35;;;12.10;76.70;;;;;;5037223;28;20033;-76
2022/11/08 03:56:38;;;;;;;6.15;3.70;;;12.10;76.20;;;;;;5055145;28;20381;-79
2022/11/08 03:59:04;;;;;;;6.72;3.22;;;12.10;76.10;;;;;;5054633;28;20113;-78
2022/11/08 04:01:30;;;;;;;5.75;3.50;;;12.10;76.30;;;;;;5036693;28;20039;-76
2022/11/08 04:03:55;;;;;;;9.48;3.97;;;12.10;75.90;;;;;;5036688;28;20072;-76
2022/11/08 04:06:21;;;;;;;6.40;3.78;;;12.10;76.20;;;;;;5036680;28;20040;-77
2022/11/08 04:08:47;;;;;;;6.20;3.38;;;12.00;76.00;;;;;;5054558;28;20044;-78
2022/11/08 04:16:41;;;;;;;5.88;3.20;;;12.10;76.60;;;;;;5054793;28;19962;-79
2022/11/08 04:21:52;;;;;;;;;;;12.10;76.10;;;;;;5054688;28;20063;-75
2022/11/08 04:24:18;;;;;;;8.65;3.92;;;12.10;76.40;;;;;;5054165;28;19956;-78
2022/11/08 04:26:44;;;;;;;7.88;3.58;;;12.10;76.00;;;;;;5054580;28;20053;-77
2022/11/08 04:29:10;;;;;;;5.88;3.03;;;12.20;76.00;;;;;;5052939;28;20090;-77
2022/11/08 04:31:36;;;;;;;4.68;2.80;;;12.10;76.10;;;;;;5054221;28;20029;-78
2022/11/08 04:34:02;;;;;;;5.40;3.20;;;12.10;75.90;;;;;;5035959;28;20120;-77
2022/11/08 04:36:28;;;;;;;6.78;3.30;;;12.20;75.90;;;;;;5036019;28;20399;-78
2022/11/08 04:38:54;;;;;;;6.63;3.22;;;12.10;75.80;;;;;;5054160;28;20120;-76
2022/11/08 04:41:22;;;;;;;5.93;3.13;;;12.20;75.90;;;;;;5035954;28;20548;-77
2022/11/08 04:43:49;;;;;;;6.88;3.05;;;12.10;75.70;;;;;;5053951;28;20052;-77
2022/11/08 04:46:18;;;;;;;8.40;2.95;;;12.10;75.80;;;;;;5053871;28;20040;-78
2022/11/08 04:48:44;;;;;;;5.43;3.03;;;12.10;75.70;;;;;;5053960;28;20040;-78
2022/11/08 04:51:16;;;;;;;4.97;2.80;;;12.00;75.80;;;;;;5052485;28;20068;-79
2022/11/08 04:53:42;;;;;;;6.18;3.10;;;12.00;75.80;;;;;;5053791;28;20041;-78
2022/11/08 04:56:13;;;;;;;6.50;3.53;;;11.90;75.70;;;;;;5053730;28;20029;-78
2022/11/08 04:58:44;;;;;;;7.88;3.30;;;11.90;75.70;;;;;;5052443;28;20029;-77
2022/11/08 05:01:12;;;;;;;5.50;2.92;;;11.90;76.00;;;;;;5035824;28;20038;-78
2022/11/08 05:03:37;;;;;;;6.88;2.92;;;11.80;75.80;;;;;;5035665;28;20048;-77
2022/11/08 05:06:05;;;;;;;8.45;3.22;;;11.80;75.80;;;;;;5035805;28;20397;-80
2022/11/08 05:08:31;;;;;;;5.40;2.80;;;11.80;76.00;;;;;;5035585;28;20164;-77
2022/11/08 05:11:11;;;;;;;7.40;3.00;;;11.70;75.90;;;;;;5052045;28;20040;-79
2022/11/08 05:13:37;;;;;;;6.95;3.25;;;11.80;76.30;;;;;;5053251;28;20067;-79
2022/11/08 05:16:14;;;;;;;7.20;3.00;;;11.80;76.20;;;;;;5053410;28;20441;-75
2022/11/08 05:18:40;;;;;;;7.13;3.10;;;11.80;75.90;;;;;;5053238;28;20036;-78
2022/11/08 05:23:52;;;;;;;5.97;2.97;;;11.70;75.90;;;;;;5054444;28;20106;-76
2022/11/08 05:26:19;;;;;;;5.93;2.95;;;11.70;75.80;;;;;;5035192;28;20436;-78
2022/11/08 05:28:44;;;;;;;6.88;3.30;;;11.70;76.00;;;;;;5052938;28;20417;-78
2022/11/08 05:31:10;;;;;;;7.38;3.55;;;11.70;76.10;;;;;;5035242;28;20037;-77
2022/11/08 05:33:36;;;;;;;6.25;3.70;;;11.70;76.20;;;;;;5051664;28;20082;-78
2022/11/08 05:36:09;;;;;;;10.15;4.38;;;11.70;76.40;;;;;;5052787;28;20473;-78
2022/11/08 05:38:35;;;;;;;8.88;4.68;;;11.70;76.70;;;;;;5051621;28;20044;-79
2022/11/08 05:41:06;;;;;;;8.30;4.30;;;11.60;76.70;;;;;;5034521;28;20037;-79
2022/11/08 05:43:32;;;;;;;8.18;4.35;;;11.60;76.60;;;;;;5052566;28;20527;-77
2022/11/08 05:45:58;;;;;;;10.65;4.28;;;11.60;77.00;;;;;;5052596;28;20056;-79
2022/11/08 05:48:24;;;;;;;9.77;4.53;;;11.50;77.40;;;;;;5052635;28;20037;-80
2022/11/08 05:50:50;;;;;;;8.43;4.43;;;11.50;77.40;;;;;;5052855;28;20130;-77
2022/11/08 05:53:16;;;;;;;12.88;4.80;;;11.50;77.50;;;;;;5035322;28;20033;-77
2022/11/08 05:55:41;;;;;;;10.43;4.93;;;11.40;77.70;;;;;;5052946;28;20524;-78
2022/11/08 05:58:07;;;;;;;9.13;4.55;;;11.40;78.10;;;;;;5053352;28;20128;-79
2022/11/08 06:00:33;;;;;;;7.00;4.50;;;11.40;78.10;;;;;;5035192;28;20037;-77
2022/11/08 06:03:03;;;;;;;8.75;4.80;;;11.40;78.20;;;;;;5053548;28;20045;-78
2022/11/08 06:05:28;;;;;;;7.53;4.72;;;11.40;78.70;;;;;;5035462;28;20028;-79
2022/11/08 06:07:54;;;;;;;9.85;4.43;;;11.50;78.40;;;;;;5042535;28;20041;-79
2022/11/08 06:10:21;;;;;;;9.70;4.10;;;11.50;78.40;;;;;;5037511;28;20033;-80
2022/11/08 06:12:46;;;;;;;7.85;4.53;;;11.50;78.50;;;;;;5054458;28;20039;-79
2022/11/08 06:15:12;;;;;;;8.13;4.28;;;11.50;78.80;;;;;;5052784;28;20037;-77
2022/11/08 06:17:38;;;;;;;9.73;4.95;;;11.50;78.30;;;;;;5052887;28;20051;-75
2022/11/08 06:20:06;;;;;;;8.68;4.47;;;11.60;78.50;;;;;;5051199;28;20152;-76
2022/11/08 06:22:33;;;;;;;9.00;4.40;;;11.60;78.50;;;;;;5051438;28;20116;-77
2022/11/08 06:24:59;;;;;;;9.02;4.30;;;11.60;78.10;;;;;;5052540;28;20037;-75
2022/11/08 06:27:25;;;;;;;9.77;4.50;;;11.60;78.30;;;;;;5052632;28;20112;-74
2022/11/08 06:29:51;;;;;;;10.88;5.35;;;11.70;78.10;;;;;;5052004;28;20162;-74
2022/11/08 06:32:17;;;;;;;7.72;4.68;;;11.90;78.10;;;;;;5051818;28;20033;-73
2022/11/08 06:34:44;;;;;;;7.93;4.85;;;11.90;77.60;;;;;;5051671;28;20041;-74
2022/11/08 06:37:11;;;;;;;7.68;4.03;;;12.10;77.50;;;;;;5051611;28;20038;-73
2022/11/08 06:39:36;;;;;;;10.25;4.53;;;12.20;77.40;;;;;;5050519;28;20037;-73
2022/11/08 06:42:02;;;;;;;8.57;4.57;;;12.40;77.40;;;;;;5051517;28;20033;-77
2022/11/08 06:44:28;;;;;;;8.15;4.30;;;12.50;77.00;;;;;;5035789;28;20135;-79
2022/11/08 06:46:54;;;;;;;7.60;4.20;;;12.50;76.70;;;;;;5052073;28;20096;-72
2022/11/08 06:49:22;;;;;;;8.88;4.35;;;12.60;76.70;;;;;;5052070;28;20029;-72
2022/11/08 06:51:49;;;;;;;8.75;3.90;;;12.70;76.30;;;;;;5052402;28;20048;-72
2022/11/08 06:54:15;;;;;;;10.60;4.88;;;12.80;76.00;;;;;;5055363;28;20473;-73
2022/11/08 06:56:41;;;;;;;7.90;4.00;;;12.90;76.00;;;;;;5055694;28;20052;-71
2022/11/08 06:59:07;;;;;;;10.45;4.10;;;13.10;76.00;;;;;;5055689;28;20090;-71
2022/11/08 07:01:33;;;;;;;9.13;4.38;;;13.20;75.50;;;;;;5037722;28;20037;-71
2022/11/08 07:03:59;;;;;;;13.45;4.55;;;13.30;74.80;;;;;;5037290;28;20385;-71
2022/11/08 07:06:25;;;;;;;9.98;4.60;;;13.30;74.70;;;;;;5037146;28;20029;-71
2022/11/08 07:08:50;;;;;;;8.88;4.30;;;13.40;74.70;;;;;;5037625;28;20400;-71
2022/11/08 07:11:16;;;;;;;8.63;3.97;;;13.50;74.50;;;;;;5055723;28;20025;-69
2022/11/08 07:13:42;;;;;;;10.80;4.45;;;13.50;74.40;;;;;;5055911;28;20398;-71
2022/11/08 07:16:08;;;;;;;10.25;4.07;;;13.60;74.00;;;;;;5037545;28;20033;-71
2022/11/08 07:18:34;;;;;;;10.27;4.35;;;13.60;74.00;;;;;;5055510;28;20478;-69
2022/11/08 07:21:01;;;;;;;9.68;3.70;;;13.70;73.60;;;;;;5055265;28;20072;-70
2022/11/08 07:23:27;;;;;;;9.20;4.65;;;13.70;73.60;;;;;;5037200;28;20049;-70
2022/11/08 07:25:53;;;;;;;11.98;4.35;;;13.70;73.30;;;;;;5037526;28;20032;-69
2022/11/08 07:28:19;;;;;;;10.23;3.95;;;13.90;73.50;;;;;;5037075;28;20401;-71
2022/11/08 07:30:46;;;;;;;10.07;3.92;;;13.90;72.90;;;;;;5037399;28;20029;-70
2022/11/08 07:33:13;;;;;;;13.10;4.60;;;13.70;72.60;;;;;;5037569;28;20140;-71
2022/11/08 07:35:39;;;;;;;7.47;4.13;;;13.70;72.90;;;;;;5055257;28;20029;-72
2022/11/08 07:38:05;;;;;;;15.00;3.97;;;13.70;72.60;;;;;;5055550;28;20378;-71
2022/11/08 07:40:30;;;;;;;13.60;4.15;;;13.70;72.40;;;;;;5036814;28;20033;-69
2022/11/08 07:42:58;;;;;;;7.35;3.80;;;13.70;72.20;;;;;;5037315;28;20054;-71
2022/11/08 07:45:24;;;;;;;11.65;4.13;;;13.70;71.90;;;;;;5037056;28;20025;-72
2022/11/08 07:48:00;;;;;;;14.00;3.72;;;13.70;72.10;;;;;;5054907;28;20440;-70
2022/11/08 07:50:27;;;;;;;13.88;4.55;;;13.70;71.40;;;;;;5036879;28;20068;-71
2022/11/08 07:52:53;;;;;;;11.20;3.83;;;13.60;71.20;;;;;;5037092;28;20048;-69
2022/11/08 07:55:19;;;;;;;16.58;4.25;;;13.60;71.30;;;;;;5054897;28;20025;-71
2022/11/08 07:57:45;;;;;;;15.07;3.85;;;13.60;71.30;;;;;;5042544;28;20077;-72
2022/11/08 08:00:12;;;;;;;11.82;3.60;;;13.60;71.00;;;;;;5034242;28;20056;-72
2022/11/08 08:02:38;;;;;;;9.77;3.28;;;13.60;71.10;;;;;;5015540;28;20563;-73
2022/11/08 08:05:04;;;;;;;8.20;3.92;;;13.60;71.10;;;;;;5034788;28;20053;-72
2022/11/08 08:07:30;;;;;;;10.23;4.40;;;13.50;71.10;;;;;;5034972;28;20507;-72
2022/11/08 08:09:55;;;;;;;8.48;3.60;;;13.60;71.50;;;;;;5017131;28;20328;-71
2022/11/08 08:12:21;;;;;;;6.78;3.60;;;13.60;71.40;;;;;;5034979;28;20040;-72
2022/11/08 08:14:47;;;;;;;7.05;3.20;;;13.60;71.50;;;;;;5016904;28;20080;-73
2022/11/08 08:17:13;;;;;;;7.55;3.20;;;13.70;71.30;;;;;;5034737;28;20037;-72
2022/11/08 08:19:38;;;;;;;9.95;3.53;;;13.70;71.50;;;;;;5034686;28;20030;-71
2022/11/08 08:22:04;;;;;;;6.43;3.03;;;13.70;71.40;;;;;;5017232;28;20037;-73
2022/11/08 08:24:30;;;;;;;6.55;3.30;;;13.80;71.60;;;;;;5034239;28;20037;-72
2022/11/08 08:26:56;;;;;;;8.20;3.20;;;13.80;71.60;;;;;;5034753;28;20029;-73
2022/11/08 08:29:22;;;;;;;6.72;3.30;;;13.90;71.60;;;;;;5045905;28;20048;-73
2022/11/08 08:31:47;;;;;;;6.30;3.20;;;13.90;71.30;;;;;;5052898;28;20029;-72
2022/11/08 08:34:14;;;;;;;8.73;3.95;;;14.00;71.30;;;;;;5053054;28;20057;-73
2022/11/08 08:36:40;;;;;;;8.60;3.45;;;14.10;71.40;;;;;;5053245;28;20124;-72
2022/11/08 08:39:06;;;;;;;9.20;3.92;;;14.20;71.50;;;;;;5054523;28;20211;-72
2022/11/08 08:41:32;;;;;;;13.27;4.00;;;14.20;71.30;;;;;;5054542;28;20072;-73
2022/11/08 08:43:58;;;;;;;8.85;3.40;;;14.30;71.10;;;;;;5054566;28;20048;-74
2022/11/08 08:46:23;;;;;;;14.07;4.43;;;14.40;71.10;;;;;;5054474;28;20105;-71
2022/11/08 08:48:49;;;;;;;9.02;3.95;;;14.40;71.00;;;;;;5054069;28;20107;-71
2022/11/08 08:51:15;;;;;;;12.10;4.13;;;14.50;71.00;;;;;;5052820;28;20443;-72
2022/11/08 08:53:40;;;;;;;8.13;3.75;;;14.50;70.60;;;;;;5054289;28;20044;-74
2022/11/08 08:56:07;;;;;;;12.85;4.15;;;14.60;71.30;;;;;;5054198;28;20037;-73
2022/11/08 08:58:33;;;;;;;13.00;6.57;;;14.70;70.60;;;;;;5052792;28;20182;-72
2022/11/08 09:01:01;;;;;;;9.73;5.13;;;14.80;70.90;;;;;;5054101;28;20060;-74
2022/11/08 09:03:27;;;;;;;8.15;3.85;;;14.90;70.30;;;;;;5053040;28;20094;-71
2022/11/08 09:05:55;;;;;;;7.50;3.63;;;14.90;70.20;;;;;;5054000;28;20033;-73
2022/11/08 09:08:21;;;;;;;15.20;4.20;;;15.00;70.10;;;;;;5053818;28;20473;-71
2022/11/08 09:10:52;;;;;;;8.23;3.50;;;15.10;70.20;;;;;;5052673;28;20029;-72
2022/11/08 09:13:18;;;;;;;6.95;3.10;;;15.20;69.90;;;;;;5052956;28;20040;-73
2022/11/08 09:15:43;;;;;;;10.75;3.63;;;15.20;69.50;;;;;;5052402;28;20036;-71
2022/11/08 09:18:09;;;;;;;6.65;3.60;;;15.40;69.50;;;;;;5057010;28;20079;-72
2022/11/08 09:20:35;;;;;;;7.97;3.50;;;15.50;69.30;;;;;;5072789;28;20052;-73
2022/11/08 09:23:03;;;;;;;10.00;3.78;;;15.50;68.60;;;;;;5072537;28;20045;-72
2022/11/08 09:25:29;;;;;;;9.90;3.60;;;15.60;68.60;;;;;;5056376;28;20052;-71
2022/11/08 09:27:55;;;;;;;8.25;3.25;;;15.70;68.60;;;;;;5053183;28;20032;-72
2022/11/08 09:30:21;;;;;;;9.48;4.00;;;15.80;68.40;;;;;;5053253;28;20600;-73
2022/11/08 09:32:46;;;;;;;8.32;3.50;;;15.90;68.10;;;;;;5053317;28;20040;-73
2022/11/08 09:35:12;;;;;;;6.93;3.47;;;15.90;67.90;;;;;;5053324;28;20393;-71
2022/11/08 09:37:38;;;;;;;6.78;3.60;;;16.00;68.00;;;;;;5051838;28;20120;-72
2022/11/08 09:40:04;;;;;;;9.05;3.70;;;16.10;67.60;;;;;;5051903;28;20479;-71
2022/11/08 09:42:43;;;;;;;8.30;3.72;;;16.20;67.50;;;;;;5051743;28;20029;-72
2022/11/08 09:45:31;;;;;;;13.88;3.72;;;16.20;67.70;;;;;;5052011;28;20049;-72
2022/11/08 09:47:59;;;;;;;10.23;3.45;;;16.40;67.40;;;;;;5053698;28;20068;-73
2022/11/08 09:50:41;;;;;;;16.85;4.03;;;16.50;66.50;;;;;;5052937;28;20055;-72
2022/11/08 09:53:33;;;;;;;9.82;3.60;;;16.60;67.00;;;;;;5051415;28;20428;-72
2022/11/08 09:56:13;;;;;;;9.73;3.53;;;16.70;67.20;;;;;;5042582;28;20129;-72
2022/11/08 09:58:53;;;;;;;8.80;3.67;;;16.80;67.00;;;;;;5052752;28;20033;-72
2022/11/08 10:01:21;;;;;;;10.30;4.38;;;16.90;66.50;;;;;;5052923;28;20064;-72
2022/11/08 10:03:51;;;;;;;8.27;3.53;;;17.00;66.00;;;;;;5051294;28;20053;-72
2022/11/08 10:06:34;;;;;;;6.85;3.28;;;17.10;65.80;;;;;;5051235;28;20029;-73
2022/11/08 10:09:09;;;;;;;9.57;3.42;;;17.20;66.10;;;;;;5051328;28;20033;-72
2022/11/08 10:11:47;;;;;;;8.88;3.95;;;17.30;65.60;;;;;;5051712;28;20041;-73
2022/11/08 10:14:24;;;;;;;11.25;3.65;;;17.40;65.50;;;;;;5052629;28;20438;-72
2022/11/08 10:17:12;;;;;;;9.13;3.60;;;17.50;65.20;;;;;;5052602;28;20035;-72
2022/11/08 10:19:56;;;;;;;10.07;4.47;;;17.60;65.20;;;;;;5052706;28;20036;-73
2022/11/08 10:22:40;;;;;;;17.95;6.47;;;17.70;64.80;;;;;;5052628;28;20041;-73
2022/11/08 10:25:21;;;;;;;16.67;6.40;;;17.80;64.80;;;;;;5052739;28;20068;-72
2022/11/08 10:27:49;;;;;;;12.23;4.18;;;17.90;64.70;;;;;;5056624;28;20032;-72
2022/11/08 10:30:19;;;;;;;12.98;3.45;;;18.00;64.90;;;;;;5056614;28;20154;-72
2022/11/08 10:32:50;;;;;;;14.52;3.30;;;18.10;64.50;;;;;;5056509;28;20033;-71
2022/11/08 10:35:24;;;;;;;9.27;2.85;;;18.20;64.20;;;;;;5056316;28;20033;-74
2022/11/08 10:37:52;;;;;;;13.55;3.45;;;18.20;64.20;;;;;;5054977;28;20037;-72
2022/11/08 10:40:27;;;;;;;6.43;2.95;;;18.30;64.30;;;;;;5055166;28;20048;-73
2022/11/08 10:43:30;;;;;;;7.30;2.72;;;18.40;64.20;;;;;;5055050;28;20041;-72
2022/11/08 10:45:56;;;;;;;8.20;3.35;;;18.50;63.90;;;;;;5056496;28;20041;-72
2022/11/08 10:48:22;;;;;;;7.45;3.10;;;18.60;64.10;;;;;;5056614;28;20036;-72
2022/11/08 10:50:49;;;;;;;7.53;3.22;;;18.60;63.90;;;;;;5056394;28;20083;-72
2022/11/08 10:53:31;;;;;;;10.27;3.05;;;18.80;63.90;;;;;;5055476;28;20040;-73
2022/11/08 10:56:03;;;;;;;5.93;2.95;;;18.80;63.80;;;;;;5054843;28;20032;-73
2022/11/08 10:58:31;;;;;;;5.45;2.75;;;18.90;63.30;;;;;;5056745;28;20086;-73
2022/11/08 11:01:18;;;;;;;5.63;2.80;;;19.00;63.20;;;;;;5054832;28;20158;-73
2022/11/08 11:03:45;;;;;;;7.90;2.55;;;19.10;63.00;;;;;;5054733;28;20111;-72
2022/11/08 11:06:22;;;;;;;7.85;3.53;;;19.20;62.90;;;;;;5054496;28;20393;-72
2022/11/08 11:08:57;;;;;;;14.43;6.57;;;19.20;62.60;;;;;;5054956;28;20036;-73
2022/11/08 11:11:35;;;;;;;13.95;5.57;;;19.30;62.50;;;;;;5054809;28;20032;-72
2022/11/08 11:14:16;;;;;;;6.28;2.83;;;19.40;62.30;;;;;;5056232;28;20091;-73
2022/11/08 11:17:01;;;;;;;7.18;2.80;;;19.50;61.80;;;;;;5054700;28;20044;-73
2022/11/08 11:19:27;;;;;;;6.03;2.50;;;19.60;61.80;;;;;;5055296;28;20028;-73
2022/11/08 11:22:10;;;;;;;7.70;2.10;;;19.60;60.80;;;;;;5056035;28;20401;-72
2022/11/08 11:24:46;;;;;;;3.87;1.93;;;19.70;60.80;;;;;;5054558;28;20135;-73
2022/11/08 11:27:23;;;;;;;4.18;1.77;;;19.80;60.60;;;;;;5054647;28;20065;-72
2022/11/08 11:30:08;;;;;;;4.30;1.75;;;19.80;60.10;;;;;;5055686;28;20107;-72
2022/11/08 11:32:35;;;;;;;6.57;1.92;;;19.80;60.50;;;;;;5056473;28;20041;-72
2022/11/08 11:35:03;;;;;;;6.13;2.00;;;19.80;60.30;;;;;;5054556;28;20500;-74
2022/11/08 11:37:40;;;;;;;5.07;2.42;;;19.90;60.00;;;;;;5053545;28;20497;-75
2022/11/08 11:40:26;;;;;;;8.23;2.05;;;20.00;60.70;;;;;;5054136;28;20040;-74
2022/11/08 11:43:00;;;;;;;4.40;1.70;;;20.10;60.20;;;;;;5055744;28;20037;-73
2022/11/08 11:46:02;;;;;;;4.88;1.85;;;20.10;59.50;;;;;;5054618;28;20041;-73
2022/11/08 11:48:31;;;;;;;7.03;1.80;;;20.20;59.80;;;;;;5053917;28;20041;-72
2022/11/08 11:50:57;;;;;;;4.78;1.40;;;20.30;59.70;;;;;;5053844;28;20071;-74
2022/11/08 11:53:31;;;;;;;3.65;1.40;;;20.40;59.30;;;;;;5053880;28;20033;-73
2022/11/08 11:56:04;;;;;;;;;;;20.40;58.90;;;;;;5054337;28;20040;-73
2022/11/08 11:58:29;;;;;;;9.65;1.88;;;20.40;58.60;;;;;;5055242;28;19955;-72
2022/11/08 12:01:03;;;;;;;5.57;1.80;;;20.40;58.80;;;;;;5055097;28;20048;-72
2022/11/08 12:03:31;;;;;;;;;;;20.50;59.60;;;;;;5055645;28;20045;-73
2022/11/08 12:06:27;;;;;;;9.65;2.60;;;20.50;58.60;;;;;;5053827;28;20361;-72
2022/11/08 12:09:28;;;;;;;4.60;1.90;;;20.60;58.70;;;;;;5054653;28;20044;-72
2022/11/08 12:12:10;;;;;;;8.60;2.42;;;20.70;58.60;;;;;;5054753;28;20025;-73
2022/11/08 12:14:51;;;;;;;7.70;2.00;;;20.80;58.00;;;;;;5053471;28;20037;-73
2022/11/08 12:17:16;;;;;;;7.38;2.10;;;20.80;58.10;;;;;;5055232;28;20082;-71
2022/11/08 12:20:02;;;;;;;6.45;3.05;;;20.80;58.10;;;;;;5054919;28;20443;-72
2022/11/08 12:22:55;;;;;;;8.38;3.90;;;20.90;58.10;;;;;;5053554;28;20029;-72
2022/11/08 12:25:36;;;;;;;8.55;2.38;;;21.00;58.00;;;;;;5054281;28;20045;-73
2022/11/08 12:28:04;;;;;;;5.80;2.55;;;21.10;57.80;;;;;;5054201;28;20033;-72
2022/11/08 12:30:49;;;;;;;4.88;2.00;;;21.10;57.60;;;;;;5054178;28;20053;-71
2022/11/08 12:33:43;;;;;;;3.63;1.50;;;21.20;57.20;;;;;;5052687;28;20154;-73
2022/11/08 12:36:18;;;;;;;10.07;1.60;;;21.20;57.20;;;;;;5053077;28;20068;-74
2022/11/08 12:38:55;;;;;;;7.97;2.90;;;21.20;57.30;;;;;;5054153;28;20491;-73
2022/11/08 12:41:53;;;;;;;4.63;1.63;;;21.20;56.90;;;;;;5053951;28;20044;-72
